createdAt,value
2024-01-12T00:01:38.716Z,98808.34
2024-01-12T00:06:44.888Z,98801.94
2024-01-12T00:11:50.680Z,98806.56
2024-01-12T00:16:56.560Z,98811.50
2024-01-12T00:22:02.294Z,98793.94
2024-01-12T00:27:07.997Z,98809.38
2024-01-12T00:32:13.898Z,98813.00
2024-01-12T00:37:19.967Z,98811.63
2024-01-12T00:42:25.646Z,98824.22
2024-01-12T00:47:31.426Z,98828.47
2024-01-12T00:52:37.305Z,98824.03
2024-01-12T00:57:43.130Z,98825.25
2024-01-12T01:02:48.878Z,98839.53
2024-01-12T01:07:54.806Z,98822.13
2024-01-12T01:13:01.140Z,98835.31
2024-01-12T01:18:07.289Z,98829.59
2024-01-12T01:23:13.314Z,98814.25
2024-01-12T01:28:19.493Z,98801.81
2024-01-12T01:33:25.722Z,98787.63
2024-01-12T01:38:31.829Z,98817.16
2024-01-12T01:43:37.638Z,98809.94
2024-01-12T01:48:43.610Z,98803.97
2024-01-12T01:53:49.835Z,98791.13
2024-01-12T01:58:55.582Z,98802.75
2024-01-12T02:04:03.326Z,98821.50
2024-01-12T02:09:09.974Z,98868.41
2024-01-12T02:14:16.027Z,98860.50
2024-01-12T02:19:21.801Z,98844.22
2024-01-12T02:24:27.397Z,98887.38
2024-01-12T02:29:33.241Z,98862.41
2024-01-12T02:34:38.970Z,98923.13
2024-01-12T02:39:45.556Z,98926.88
2024-01-12T02:44:51.396Z,98948.00
2024-01-12T02:49:56.945Z,98949.59
2024-01-12T02:55:03.094Z,98943.38
2024-01-12T03:00:10.041Z,98973.53
2024-01-12T03:05:15.917Z,98964.69
2024-01-12T03:10:21.618Z,98987.00
2024-01-12T03:15:27.174Z,98991.38
2024-01-12T03:20:33.053Z,99011.47
2024-01-12T03:25:38.713Z,99017.91
2024-01-12T03:30:44.408Z,99037.75
2024-01-12T03:35:50.339Z,99061.94
2024-01-12T03:40:55.819Z,99052.78
2024-01-12T03:46:01.541Z,99070.81
2024-01-12T03:51:07.622Z,99075.00
2024-01-12T03:56:13.388Z,99027.72
2024-01-12T04:01:19.420Z,99096.19
2024-01-12T04:06:25.108Z,99126.16
2024-01-12T04:11:30.847Z,99140.47
2024-01-12T04:16:35.231Z,99140.59
2024-01-12T04:21:39.457Z,99175.25
2024-01-12T04:26:44.904Z,99204.75
2024-01-12T04:31:49.241Z,99200.81
2024-01-12T04:36:55.211Z,99211.31
2024-01-12T04:41:59.795Z,99221.44
2024-01-12T04:47:08.902Z,99235.66
2024-01-12T04:52:13.329Z,99230.03
2024-01-12T04:57:17.620Z,99225.34
2024-01-12T05:02:22.699Z,99234.72
2024-01-12T05:07:29.832Z,99235.31
2024-01-12T05:12:39.465Z,99261.47
2024-01-12T05:17:44.327Z,99269.38
2024-01-12T05:22:48.679Z,99283.59
2024-01-12T05:35:39.482Z,99316.63
2024-01-12T05:41:34.439Z,99300.19
2024-01-12T05:53:24.698Z,99330.66
2024-01-12T05:58:29.001Z,99325.09
2024-01-12T06:03:33.336Z,99325.06
2024-01-12T06:08:37.727Z,99344.69
2024-01-12T06:13:42.681Z,99345.75
2024-01-12T06:18:49.088Z,99347.09
2024-01-12T06:23:53.638Z,99366.25
2024-01-12T06:28:59.815Z,99373.47
2024-01-12T06:34:04.242Z,99371.28
2024-01-12T06:39:33.904Z,99400.81
2024-01-12T06:44:44.745Z,99417.19
2024-01-12T06:49:49.442Z,99448.91
2024-01-12T06:54:53.812Z,99461.69
2024-01-12T06:59:58.635Z,99501.69
2024-01-12T07:05:03.154Z,99508.25
2024-01-12T07:10:10.421Z,99507.00
2024-01-12T07:15:15.380Z,99513.72
2024-01-12T07:20:20.727Z,99515.00
2024-01-12T07:25:25.181Z,99529.53
2024-01-12T07:30:29.613Z,99494.66
2024-01-12T07:35:34.273Z,99564.38
2024-01-12T07:40:39.270Z,99575.75
2024-01-12T07:45:43.767Z,99593.16
2024-01-12T07:50:48.534Z,99586.69
2024-01-12T07:55:54.168Z,99563.69
2024-01-12T08:00:59.669Z,99561.91
2024-01-12T08:06:05.245Z,99550.72
2024-01-12T08:11:23.238Z,99556.75
2024-01-12T08:16:37.747Z,99547.22
2024-01-12T08:21:49.268Z,99556.78
2024-01-12T08:26:59.684Z,99563.34
2024-01-12T08:32:04.138Z,99574.44
2024-01-12T08:37:09.393Z,99573.38
2024-01-12T08:42:13.676Z,99579.66
2024-01-12T08:47:18.121Z,99583.25
2024-01-12T08:52:26.019Z,99587.50
2024-01-12T08:57:30.461Z,99590.56
2024-01-12T09:02:34.942Z,99586.69
2024-01-12T09:07:39.972Z,99615.53
2024-01-12T09:12:44.892Z,99633.88
2024-01-12T09:17:49.442Z,99641.78
2024-01-12T09:22:53.743Z,99651.91
2024-01-12T09:27:59.253Z,99643.34
2024-01-12T09:33:04.222Z,99646.59
2024-01-12T09:38:12.649Z,99651.97
2024-01-12T09:43:17.680Z,99668.03
2024-01-12T09:48:22.584Z,99644.13
2024-01-12T09:53:27.342Z,99657.53
2024-01-12T09:58:32.646Z,99644.38
2024-01-12T10:03:38.867Z,99651.44
2024-01-12T10:08:44.278Z,99641.13
2024-01-12T10:21:41.556Z,99651.50
2024-01-12T10:26:50.067Z,99646.78
2024-01-12T10:31:54.524Z,99653.28
2024-01-12T10:37:00.913Z,99655.19
2024-01-12T10:42:09.984Z,99664.66
2024-01-12T10:47:22.475Z,99664.28
2024-01-12T10:52:48.936Z,99665.69
2024-01-12T10:57:56.492Z,99657.00
2024-01-12T11:03:05.828Z,99680.56
2024-01-12T11:08:12.328Z,99639.81
2024-01-12T11:13:18.448Z,99644.28
2024-01-12T11:18:23.816Z,99660.78
2024-01-12T11:23:30.304Z,99673.13
2024-01-12T11:28:39.636Z,99690.16
2024-01-12T11:33:47.353Z,99647.78
2024-01-12T11:38:57.246Z,99688.22
2024-01-12T11:44:02.336Z,99703.91
2024-01-12T11:49:06.876Z,99722.78
2024-01-12T11:54:12.021Z,99719.56
2024-01-12T11:59:16.347Z,99717.47
2024-01-12T12:04:20.875Z,99665.50
2024-01-12T12:09:25.204Z,99718.44
2024-01-12T12:14:31.537Z,99740.97
2024-01-12T12:19:36.177Z,99742.03
2024-01-12T12:24:41.172Z,99743.34
2024-01-12T12:29:47.927Z,99757.91
2024-01-12T12:34:52.967Z,99763.88
2024-01-12T12:40:00.296Z,99748.94
2024-01-12T12:45:04.915Z,99766.88
2024-01-12T12:50:14.349Z,99783.06
2024-01-12T12:55:18.828Z,99766.59
2024-01-12T13:00:23.242Z,99769.81
2024-01-12T13:05:28.196Z,99781.44
2024-01-12T13:10:34.005Z,99789.06
2024-01-12T13:15:39.900Z,99789.84
2024-01-12T13:20:48.955Z,99787.16
2024-01-12T13:25:55.004Z,99792.53
2024-01-12T13:31:01.708Z,99798.47
2024-01-12T13:36:08.269Z,99815.44
2024-01-12T13:41:14.113Z,99815.56
2024-01-12T13:46:19.855Z,99822.03
2024-01-12T13:51:25.882Z,99832.91
2024-01-12T13:56:32.838Z,99816.56
2024-01-12T14:01:39.271Z,99856.50
2024-01-12T14:06:45.192Z,99858.84
2024-01-12T14:11:51.173Z,99859.59
2024-01-12T14:16:57.479Z,99866.69
2024-01-12T14:22:03.447Z,99881.25
2024-01-12T14:27:09.357Z,99885.09
2024-01-12T14:32:15.376Z,99896.13
2024-01-12T14:37:21.056Z,99912.75
2024-01-12T14:42:26.849Z,99892.00
2024-01-12T14:47:34.011Z,99899.78
2024-01-12T14:52:41.830Z,99904.44
2024-01-12T14:57:47.457Z,99905.72
2024-01-12T15:02:53.525Z,99917.59
2024-01-12T15:07:59.247Z,99914.38
2024-01-12T15:13:05.141Z,99927.34
2024-01-12T15:18:12.491Z,99935.16
2024-01-12T15:23:18.256Z,99927.47
2024-01-12T15:28:26.994Z,99944.13
2024-01-12T15:33:32.738Z,99945.50
2024-01-12T15:38:38.389Z,99952.38
2024-01-12T15:43:43.914Z,99974.56
2024-01-12T15:48:49.700Z,99975.84
2024-01-12T15:53:56.804Z,99964.03
2024-01-12T15:59:06.858Z,99978.66
2024-01-12T16:04:12.681Z,99981.53
2024-01-12T16:09:18.367Z,99968.41
2024-01-12T16:14:24.131Z,99971.56
2024-01-12T16:19:29.907Z,99963.47
2024-01-12T16:24:36.146Z,99992.88
2024-01-12T16:29:42.039Z,99973.41
2024-01-12T16:34:47.940Z,99970.09
2024-01-12T16:39:53.604Z,99997.13
2024-01-12T16:45:00.809Z,99978.00
2024-01-12T16:50:09.295Z,99959.16
